sensor_id;sensor_type;location;lat;lon;timestamp;P1;durP1;ratioP1;P2;durP2;ratioP2
73650;SDS011;61944;52.538;6.108;2023-08-08T00:01:22;7.63;;;3.00;;
73650;SDS011;61944;52.538;6.108;2023-08-08T00:03:47;7.95;;;3.50;;
73650;SDS011;61944;52.538;6.108;2023-08-08T00:06:13;5.20;;;2.67;;
73650;SDS011;61944;52.538;6.108;2023-08-08T00:08:38;3.60;;;2.40;;
73650;SDS011;61944;52.538;6.108;2023-08-08T00:11:04;6.53;;;2.60;;
73650;SDS011;61944;52.538;6.108;2023-08-08T00:13:29;5.45;;;2.78;;
73650;SDS011;61944;52.538;6.108;2023-08-08T00:15:55;5.60;;;2.40;;
73650;SDS011;61944;52.538;6.108;2023-08-08T00:18:20;6.35;;;2.72;;
73650;SDS011;61944;52.538;6.108;2023-08-08T00:20:45;6.20;;;2.83;;
73650;SDS011;61944;52.538;6.108;2023-08-08T00:23:11;6.22;;;2.60;;
73650;SDS011;61944;52.538;6.108;2023-08-08T00:25:36;5.68;;;3.13;;
73650;SDS011;61944;52.538;6.108;2023-08-08T00:28:02;6.88;;;3.15;;
73650;SDS011;61944;52.538;6.108;2023-08-08T00:30:28;5.18;;;2.85;;
73650;SDS011;61944;52.538;6.108;2023-08-08T00:32:56;5.95;;;3.55;;
73650;SDS011;61944;52.538;6.108;2023-08-08T00:35:21;4.85;;;3.10;;
73650;SDS011;61944;52.538;6.108;2023-08-08T00:37:47;5.13;;;3.28;;
73650;SDS011;61944;52.538;6.108;2023-08-08T00:40:13;5.32;;;2.95;;
73650;SDS011;61944;52.538;6.108;2023-08-08T00:42:38;6.22;;;2.88;;
73650;SDS011;61944;52.538;6.108;2023-08-08T00:45:04;7.00;;;3.00;;
73650;SDS011;61944;52.538;6.108;2023-08-08T00:47:33;8.15;;;3.45;;
73650;SDS011;61944;52.538;6.108;2023-08-08T00:50:00;4.47;;;2.80;;
73650;SDS011;61944;52.538;6.108;2023-08-08T00:52:27;5.65;;;2.20;;
73650;SDS011;61944;52.538;6.108;2023-08-08T00:54:53;7.65;;;3.20;;
73650;SDS011;61944;52.538;6.108;2023-08-08T00:57:18;8.18;;;3.00;;
73650;SDS011;61944;52.538;6.108;2023-08-08T00:59:44;6.57;;;2.13;;
73650;SDS011;61944;52.538;6.108;2023-08-08T01:02:10;4.13;;;3.00;;
73650;SDS011;61944;52.538;6.108;2023-08-08T01:04:36;4.97;;;2.70;;
73650;SDS011;61944;52.538;6.108;2023-08-08T01:07:10;6.30;;;3.38;;
73650;SDS011;61944;52.538;6.108;2023-08-08T01:09:41;5.07;;;3.38;;
73650;SDS011;61944;52.538;6.108;2023-08-08T01:12:13;6.78;;;2.95;;
73650;SDS011;61944;52.538;6.108;2023-08-08T01:14:41;3.65;;;2.25;;
73650;SDS011;61944;52.538;6.108;2023-08-08T01:17:08;8.75;;;4.55;;
73650;SDS011;61944;52.538;6.108;2023-08-08T01:19:35;8.88;;;2.83;;
73650;SDS011;61944;52.538;6.108;2023-08-08T01:22:02;6.88;;;3.60;;
73650;SDS011;61944;52.538;6.108;2023-08-08T01:24:29;6.28;;;3.28;;
73650;SDS011;61944;52.538;6.108;2023-08-08T01:26:58;5.55;;;2.90;;
73650;SDS011;61944;52.538;6.108;2023-08-08T01:29:25;15.30;;;3.53;;
73650;SDS011;61944;52.538;6.108;2023-08-08T01:31:51;8.13;;;3.35;;
73650;SDS011;61944;52.538;6.108;2023-08-08T01:34:16;9.13;;;3.63;;
73650;SDS011;61944;52.538;6.108;2023-08-08T01:36:49;10.35;;;4.57;;
73650;SDS011;61944;52.538;6.108;2023-08-08T01:39:20;9.88;;;4.43;;
73650;SDS011;61944;52.538;6.108;2023-08-08T01:41:50;13.50;;;4.60;;
73650;SDS011;61944;52.538;6.108;2023-08-08T01:44:17;6.28;;;3.92;;
73650;SDS011;61944;52.538;6.108;2023-08-08T01:46:43;12.80;;;4.28;;
73650;SDS011;61944;52.538;6.108;2023-08-08T01:49:09;8.77;;;3.72;;
73650;SDS011;61944;52.538;6.108;2023-08-08T01:51:34;5.18;;;3.08;;
73650;SDS011;61944;52.538;6.108;2023-08-08T01:54:00;5.85;;;3.55;;
73650;SDS011;61944;52.538;6.108;2023-08-08T01:56:25;9.18;;;4.05;;
73650;SDS011;61944;52.538;6.108;2023-08-08T01:58:50;7.72;;;3.83;;
73650;SDS011;61944;52.538;6.108;2023-08-08T02:01:16;11.60;;;3.30;;
73650;SDS011;61944;52.538;6.108;2023-08-08T02:03:41;11.48;;;3.85;;
73650;SDS011;61944;52.538;6.108;2023-08-08T02:06:07;9.82;;;3.60;;
73650;SDS011;61944;52.538;6.108;2023-08-08T02:08:32;7.43;;;4.30;;
73650;SDS011;61944;52.538;6.108;2023-08-08T02:10:57;9.63;;;3.92;;
73650;SDS011;61944;52.538;6.108;2023-08-08T02:13:23;8.43;;;3.05;;
73650;SDS011;61944;52.538;6.108;2023-08-08T02:15:48;12.00;;;3.90;;
73650;SDS011;61944;52.538;6.108;2023-08-08T02:18:14;9.10;;;3.92;;
73650;SDS011;61944;52.538;6.108;2023-08-08T02:20:39;9.35;;;3.25;;
73650;SDS011;61944;52.538;6.108;2023-08-08T02:23:04;13.68;;;4.13;;
73650;SDS011;61944;52.538;6.108;2023-08-08T02:25:30;10.18;;;4.43;;
73650;SDS011;61944;52.538;6.108;2023-08-08T02:27:56;8.77;;;3.42;;
73650;SDS011;61944;52.538;6.108;2023-08-08T02:30:21;10.82;;;3.80;;
73650;SDS011;61944;52.538;6.108;2023-08-08T02:32:47;6.68;;;3.67;;
73650;SDS011;61944;52.538;6.108;2023-08-08T02:35:12;12.57;;;3.67;;
73650;SDS011;61944;52.538;6.108;2023-08-08T02:37:38;10.60;;;3.67;;
73650;SDS011;61944;52.538;6.108;2023-08-08T02:40:04;8.63;;;3.38;;
73650;SDS011;61944;52.538;6.108;2023-08-08T02:42:30;5.80;;;3.13;;
73650;SDS011;61944;52.538;6.108;2023-08-08T02:44:55;7.50;;;3.92;;
73650;SDS011;61944;52.538;6.108;2023-08-08T02:47:21;6.97;;;3.35;;
73650;SDS011;61944;52.538;6.108;2023-08-08T02:49:46;9.43;;;3.75;;
73650;SDS011;61944;52.538;6.108;2023-08-08T02:52:12;7.78;;;3.30;;
73650;SDS011;61944;52.538;6.108;2023-08-08T02:54:37;7.47;;;4.28;;
73650;SDS011;61944;52.538;6.108;2023-08-08T02:57:03;6.97;;;3.58;;
73650;SDS011;61944;52.538;6.108;2023-08-08T02:59:28;10.18;;;3.60;;
73650;SDS011;61944;52.538;6.108;2023-08-08T03:01:54;9.20;;;3.63;;
73650;SDS011;61944;52.538;6.108;2023-08-08T03:04:19;8.98;;;3.45;;
73650;SDS011;61944;52.538;6.108;2023-08-08T03:06:45;7.38;;;3.40;;
73650;SDS011;61944;52.538;6.108;2023-08-08T03:09:10;9.35;;;3.75;;
73650;SDS011;61944;52.538;6.108;2023-08-08T03:11:36;10.68;;;3.15;;
73650;SDS011;61944;52.538;6.108;2023-08-08T03:14:02;7.93;;;3.70;;
73650;SDS011;61944;52.538;6.108;2023-08-08T03:16:28;7.03;;;3.75;;
73650;SDS011;61944;52.538;6.108;2023-08-08T03:18:53;11.27;;;3.60;;
73650;SDS011;61944;52.538;6.108;2023-08-08T03:21:19;6.88;;;3.67;;
73650;SDS011;61944;52.538;6.108;2023-08-08T03:23:44;9.07;;;3.22;;
73650;SDS011;61944;52.538;6.108;2023-08-08T03:26:09;7.88;;;3.22;;
73650;SDS011;61944;52.538;6.108;2023-08-08T03:28:35;6.57;;;3.47;;
73650;SDS011;61944;52.538;6.108;2023-08-08T03:31:01;16.70;;;3.70;;
73650;SDS011;61944;52.538;6.108;2023-08-08T03:33:28;13.32;;;4.47;;
73650;SDS011;61944;52.538;6.108;2023-08-08T03:35:53;4.22;;;2.70;;
73650;SDS011;61944;52.538;6.108;2023-08-08T03:38:19;6.20;;;3.15;;
73650;SDS011;61944;52.538;6.108;2023-08-08T03:40:44;8.23;;;2.90;;
73650;SDS011;61944;52.538;6.108;2023-08-08T03:43:10;6.28;;;2.53;;
73650;SDS011;61944;52.538;6.108;2023-08-08T03:45:35;4.10;;;2.88;;
73650;SDS011;61944;52.538;6.108;2023-08-08T03:48:00;11.23;;;2.88;;
73650;SDS011;61944;52.538;6.108;2023-08-08T03:50:26;7.25;;;2.78;;
73650;SDS011;61944;52.538;6.108;2023-08-08T03:52:51;9.63;;;2.92;;
73650;SDS011;61944;52.538;6.108;2023-08-08T03:55:17;8.32;;;3.35;;
73650;SDS011;61944;52.538;6.108;2023-08-08T03:57:43;6.22;;;3.35;;
73650;SDS011;61944;52.538;6.108;2023-08-08T04:00:09;4.20;;;2.40;;
73650;SDS011;61944;52.538;6.108;2023-08-08T04:02:36;3.90;;;1.83;;
73650;SDS011;61944;52.538;6.108;2023-08-08T04:05:01;5.70;;;2.38;;
73650;SDS011;61944;52.538;6.108;2023-08-08T04:07:27;7.13;;;2.38;;
73650;SDS011;61944;52.538;6.108;2023-08-08T04:09:53;10.52;;;2.83;;
73650;SDS011;61944;52.538;6.108;2023-08-08T04:12:18;3.80;;;2.00;;
73650;SDS011;61944;52.538;6.108;2023-08-08T04:14:43;2.85;;;2.00;;
73650;SDS011;61944;52.538;6.108;2023-08-08T04:17:09;4.40;;;2.63;;
73650;SDS011;61944;52.538;6.108;2023-08-08T04:19:34;4.88;;;2.88;;
73650;SDS011;61944;52.538;6.108;2023-08-08T04:22:00;4.35;;;2.05;;
73650;SDS011;61944;52.538;6.108;2023-08-08T04:24:25;2.90;;;1.80;;
73650;SDS011;61944;52.538;6.108;2023-08-08T04:26:51;2.42;;;1.70;;
73650;SDS011;61944;52.538;6.108;2023-08-08T04:29:16;4.60;;;1.95;;
73650;SDS011;61944;52.538;6.108;2023-08-08T04:31:41;4.63;;;1.90;;
73650;SDS011;61944;52.538;6.108;2023-08-08T04:34:07;3.15;;;1.80;;
73650;SDS011;61944;52.538;6.108;2023-08-08T04:36:32;6.25;;;1.88;;
73650;SDS011;61944;52.538;6.108;2023-08-08T04:38:58;6.38;;;3.42;;
73650;SDS011;61944;52.538;6.108;2023-08-08T04:41:23;8.10;;;1.95;;
73650;SDS011;61944;52.538;6.108;2023-08-08T04:43:49;5.72;;;2.15;;
73650;SDS011;61944;52.538;6.108;2023-08-08T04:46:14;4.72;;;1.85;;
73650;SDS011;61944;52.538;6.108;2023-08-08T04:48:40;4.57;;;2.22;;
73650;SDS011;61944;52.538;6.108;2023-08-08T04:51:05;5.38;;;2.05;;
73650;SDS011;61944;52.538;6.108;2023-08-08T04:53:31;6.00;;;2.83;;
73650;SDS011;61944;52.538;6.108;2023-08-08T04:55:57;7.82;;;2.03;;
73650;SDS011;61944;52.538;6.108;2023-08-08T04:58:23;3.40;;;1.75;;
73650;SDS011;61944;52.538;6.108;2023-08-08T05:00:48;3.47;;;1.45;;
73650;SDS011;61944;52.538;6.108;2023-08-08T05:03:15;4.22;;;2.20;;
73650;SDS011;61944;52.538;6.108;2023-08-08T05:05:41;5.82;;;2.92;;
73650;SDS011;61944;52.538;6.108;2023-08-08T05:08:06;3.85;;;2.10;;
73650;SDS011;61944;52.538;6.108;2023-08-08T05:10:35;6.57;;;2.10;;
73650;SDS011;61944;52.538;6.108;2023-08-08T05:13:00;5.57;;;1.92;;
73650;SDS011;61944;52.538;6.108;2023-08-08T05:15:25;6.07;;;1.95;;
73650;SDS011;61944;52.538;6.108;2023-08-08T05:17:51;3.67;;;1.55;;
73650;SDS011;61944;52.538;6.108;2023-08-08T05:20:19;5.65;;;1.65;;
73650;SDS011;61944;52.538;6.108;2023-08-08T05:22:44;2.55;;;1.30;;
73650;SDS011;61944;52.538;6.108;2023-08-08T05:25:10;7.78;;;2.15;;
73650;SDS011;61944;52.538;6.108;2023-08-08T05:27:35;5.18;;;1.58;;
73650;SDS011;61944;52.538;6.108;2023-08-08T05:30:01;4.38;;;1.58;;
73650;SDS011;61944;52.538;6.108;2023-08-08T05:32:26;4.63;;;1.60;;
73650;SDS011;61944;52.538;6.108;2023-08-08T05:34:52;4.75;;;1.50;;
73650;SDS011;61944;52.538;6.108;2023-08-08T05:37:17;3.75;;;1.80;;
73650;SDS011;61944;52.538;6.108;2023-08-08T05:39:42;7.28;;;1.75;;
73650;SDS011;61944;52.538;6.108;2023-08-08T05:42:09;4.50;;;1.63;;
73650;SDS011;61944;52.538;6.108;2023-08-08T05:44:35;3.92;;;1.88;;
73650;SDS011;61944;52.538;6.108;2023-08-08T05:47:00;3.22;;;1.73;;
73650;SDS011;61944;52.538;6.108;2023-08-08T05:49:26;7.47;;;1.80;;
73650;SDS011;61944;52.538;6.108;2023-08-08T05:51:51;3.67;;;1.40;;
73650;SDS011;61944;52.538;6.108;2023-08-08T05:54:16;3.97;;;1.63;;
73650;SDS011;61944;52.538;6.108;2023-08-08T05:56:42;2.92;;;1.33;;
73650;SDS011;61944;52.538;6.108;2023-08-08T05:59:07;3.40;;;1.92;;
73650;SDS011;61944;52.538;6.108;2023-08-08T06:01:33;4.35;;;2.72;;
73650;SDS011;61944;52.538;6.108;2023-08-08T06:03:59;3.25;;;1.30;;
73650;SDS011;61944;52.538;6.108;2023-08-08T06:06:25;5.97;;;2.28;;
73650;SDS011;61944;52.538;6.108;2023-08-08T06:08:51;4.55;;;1.95;;
73650;SDS011;61944;52.538;6.108;2023-08-08T06:11:17;4.25;;;1.48;;
73650;SDS011;61944;52.538;6.108;2023-08-08T06:13:42;2.80;;;1.65;;
73650;SDS011;61944;52.538;6.108;2023-08-08T06:16:08;6.63;;;1.73;;
73650;SDS011;61944;52.538;6.108;2023-08-08T06:18:34;9.63;;;1.30;;
73650;SDS011;61944;52.538;6.108;2023-08-08T06:21:00;4.95;;;1.48;;
73650;SDS011;61944;52.538;6.108;2023-08-08T06:23:25;4.68;;;1.40;;
73650;SDS011;61944;52.538;6.108;2023-08-08T06:25:51;9.52;;;1.92;;
73650;SDS011;61944;52.538;6.108;2023-08-08T06:28:19;4.32;;;1.60;;
73650;SDS011;61944;52.538;6.108;2023-08-08T06:30:44;2.92;;;1.23;;
73650;SDS011;61944;52.538;6.108;2023-08-08T06:33:09;6.38;;;2.17;;
73650;SDS011;61944;52.538;6.108;2023-08-08T06:35:35;4.05;;;1.10;;
73650;SDS011;61944;52.538;6.108;2023-08-08T06:38:00;5.75;;;1.52;;
73650;SDS011;61944;52.538;6.108;2023-08-08T06:40:26;5.78;;;1.40;;
73650;SDS011;61944;52.538;6.108;2023-08-08T06:42:52;5.15;;;1.27;;
73650;SDS011;61944;52.538;6.108;2023-08-08T06:45:18;4.93;;;1.10;;
73650;SDS011;61944;52.538;6.108;2023-08-08T06:47:44;3.80;;;1.38;;
73650;SDS011;61944;52.538;6.108;2023-08-08T06:50:10;7.22;;;1.45;;
73650;SDS011;61944;52.538;6.108;2023-08-08T06:52:35;2.50;;;1.08;;
73650;SDS011;61944;52.538;6.108;2023-08-08T06:55:01;3.78;;;1.08;;
73650;SDS011;61944;52.538;6.108;2023-08-08T06:57:26;3.05;;;1.77;;
73650;SDS011;61944;52.538;6.108;2023-08-08T06:59:52;9.25;;;2.40;;
73650;SDS011;61944;52.538;6.108;2023-08-08T07:02:18;4.05;;;1.17;;
73650;SDS011;61944;52.538;6.108;2023-08-08T07:04:46;5.82;;;1.30;;
73650;SDS011;61944;52.538;6.108;2023-08-08T07:07:11;3.75;;;1.27;;
73650;SDS011;61944;52.538;6.108;2023-08-08T07:09:36;5.45;;;0.90;;
73650;SDS011;61944;52.538;6.108;2023-08-08T07:12:03;3.53;;;1.10;;
73650;SDS011;61944;52.538;6.108;2023-08-08T07:14:29;3.25;;;0.95;;
73650;SDS011;61944;52.538;6.108;2023-08-08T07:16:54;4.90;;;1.10;;
73650;SDS011;61944;52.538;6.108;2023-08-08T07:19:20;6.40;;;1.40;;
73650;SDS011;61944;52.538;6.108;2023-08-08T07:21:46;1.75;;;1.02;;
73650;SDS011;61944;52.538;6.108;2023-08-08T07:24:12;3.53;;;1.13;;
73650;SDS011;61944;52.538;6.108;2023-08-08T07:26:37;5.30;;;1.50;;
73650;SDS011;61944;52.538;6.108;2023-08-08T07:29:03;3.75;;;0.77;;
73650;SDS011;61944;52.538;6.108;2023-08-08T07:31:31;10.25;;;1.50;;
73650;SDS011;61944;52.538;6.108;2023-08-08T07:33:56;2.20;;;1.15;;
73650;SDS011;61944;52.538;6.108;2023-08-08T07:36:22;5.00;;;1.55;;
73650;SDS011;61944;52.538;6.108;2023-08-08T07:38:47;6.78;;;1.25;;
73650;SDS011;61944;52.538;6.108;2023-08-08T07:41:12;3.88;;;1.17;;
73650;SDS011;61944;52.538;6.108;2023-08-08T07:43:38;3.30;;;1.08;;
73650;SDS011;61944;52.538;6.108;2023-08-08T07:46:03;1.08;;;0.85;;
73650;SDS011;61944;52.538;6.108;2023-08-08T07:48:29;4.18;;;1.02;;
73650;SDS011;61944;52.538;6.108;2023-08-08T07:50:55;1.58;;;0.90;;
73650;SDS011;61944;52.538;6.108;2023-08-08T07:53:20;6.35;;;1.17;;
73650;SDS011;61944;52.538;6.108;2023-08-08T07:55:45;5.15;;;1.50;;
73650;SDS011;61944;52.538;6.108;2023-08-08T07:58:11;2.83;;;1.10;;
73650;SDS011;61944;52.538;6.108;2023-08-08T08:00:37;3.20;;;1.30;;
73650;SDS011;61944;52.538;6.108;2023-08-08T08:03:03;4.03;;;1.05;;
73650;SDS011;61944;52.538;6.108;2023-08-08T08:05:29;3.40;;;0.88;;
73650;SDS011;61944;52.538;6.108;2023-08-08T08:07:54;4.43;;;1.20;;
73650;SDS011;61944;52.538;6.108;2023-08-08T08:10:20;5.25;;;1.33;;
73650;SDS011;61944;52.538;6.108;2023-08-08T08:12:45;3.58;;;1.35;;
73650;SDS011;61944;52.538;6.108;2023-08-08T08:15:11;3.90;;;0.93;;
73650;SDS011;61944;52.538;6.108;2023-08-08T08:17:36;1.85;;;0.65;;
73650;SDS011;61944;52.538;6.108;2023-08-08T08:20:02;0.95;;;0.80;;
73650;SDS011;61944;52.538;6.108;2023-08-08T08:22:35;3.42;;;1.00;;
73650;SDS011;61944;52.538;6.108;2023-08-08T08:25:01;3.22;;;1.25;;
73650;SDS011;61944;52.538;6.108;2023-08-08T08:27:26;3.45;;;0.82;;
73650;SDS011;61944;52.538;6.108;2023-08-08T08:29:52;2.45;;;1.20;;
73650;SDS011;61944;52.538;6.108;2023-08-08T08:32:17;2.40;;;0.90;;
73650;SDS011;61944;52.538;6.108;2023-08-08T08:34:43;2.92;;;1.10;;
73650;SDS011;61944;52.538;6.108;2023-08-08T08:37:09;4.63;;;0.90;;
73650;SDS011;61944;52.538;6.108;2023-08-08T08:39:34;2.25;;;0.80;;
73650;SDS011;61944;52.538;6.108;2023-08-08T08:42:00;2.10;;;0.90;;
73650;SDS011;61944;52.538;6.108;2023-08-08T08:44:29;1.23;;;1.08;;
73650;SDS011;61944;52.538;6.108;2023-08-08T08:46:58;3.85;;;0.93;;
73650;SDS011;61944;52.538;6.108;2023-08-08T08:49:26;3.03;;;0.70;;
73650;SDS011;61944;52.538;6.108;2023-08-08T08:51:55;4.68;;;0.90;;
73650;SDS011;61944;52.538;6.108;2023-08-08T08:54:21;4.63;;;1.05;;
73650;SDS011;61944;52.538;6.108;2023-08-08T08:56:47;5.70;;;1.60;;
73650;SDS011;61944;52.538;6.108;2023-08-08T08:59:13;2.08;;;0.80;;
73650;SDS011;61944;52.538;6.108;2023-08-08T09:01:39;1.73;;;0.95;;
73650;SDS011;61944;52.538;6.108;2023-08-08T09:04:04;2.67;;;0.80;;
73650;SDS011;61944;52.538;6.108;2023-08-08T09:06:32;4.53;;;1.20;;
73650;SDS011;61944;52.538;6.108;2023-08-08T09:08:58;3.33;;;1.42;;
73650;SDS011;61944;52.538;6.108;2023-08-08T09:11:24;2.85;;;0.73;;
73650;SDS011;61944;52.538;6.108;2023-08-08T09:13:50;1.35;;;0.70;;
73650;SDS011;61944;52.538;6.108;2023-08-08T09:16:16;4.30;;;0.90;;
73650;SDS011;61944;52.538;6.108;2023-08-08T09:18:42;1.40;;;0.80;;
73650;SDS011;61944;52.538;6.108;2023-08-08T09:21:08;2.05;;;1.02;;
73650;SDS011;61944;52.538;6.108;2023-08-08T09:23:33;2.45;;;0.95;;
73650;SDS011;61944;52.538;6.108;2023-08-08T09:25:58;5.18;;;1.15;;
73650;SDS011;61944;52.538;6.108;2023-08-08T09:28:24;1.27;;;0.75;;
73650;SDS011;61944;52.538;6.108;2023-08-08T09:30:50;3.20;;;1.40;;
73650;SDS011;61944;52.538;6.108;2023-08-08T09:33:17;5.50;;;1.20;;
73650;SDS011;61944;52.538;6.108;2023-08-08T09:35:43;4.10;;;1.50;;
73650;SDS011;61944;52.538;6.108;2023-08-08T09:38:09;2.00;;;1.23;;
73650;SDS011;61944;52.538;6.108;2023-08-08T09:40:34;1.65;;;1.23;;
73650;SDS011;61944;52.538;6.108;2023-08-08T09:43:00;1.27;;;1.17;;
73650;SDS011;61944;52.538;6.108;2023-08-08T09:45:25;3.67;;;1.27;;
73650;SDS011;61944;52.538;6.108;2023-08-08T09:47:51;3.03;;;1.20;;
73650;SDS011;61944;52.538;6.108;2023-08-08T09:50:19;3.75;;;1.20;;
73650;SDS011;61944;52.538;6.108;2023-08-08T09:52:48;3.85;;;1.20;;
73650;SDS011;61944;52.538;6.108;2023-08-08T09:55:14;4.28;;;2.03;;
73650;SDS011;61944;52.538;6.108;2023-08-08T09:57:40;1.77;;;0.90;;
73650;SDS011;61944;52.538;6.108;2023-08-08T10:00:07;1.92;;;1.25;;
73650;SDS011;61944;52.538;6.108;2023-08-08T10:02:37;2.85;;;1.08;;
73650;SDS011;61944;52.538;6.108;2023-08-08T10:05:05;1.85;;;1.20;;
73650;SDS011;61944;52.538;6.108;2023-08-08T10:07:31;1.73;;;1.13;;
73650;SDS011;61944;52.538;6.108;2023-08-08T10:09:57;4.03;;;1.35;;
73650;SDS011;61944;52.538;6.108;2023-08-08T10:12:24;1.95;;;1.58;;
73650;SDS011;61944;52.538;6.108;2023-08-08T10:14:51;4.13;;;1.02;;
73650;SDS011;61944;52.538;6.108;2023-08-08T10:17:17;1.75;;;1.10;;
73650;SDS011;61944;52.538;6.108;2023-08-08T10:19:53;1.45;;;1.00;;
73650;SDS011;61944;52.538;6.108;2023-08-08T10:22:20;7.03;;;1.30;;
73650;SDS011;61944;52.538;6.108;2023-08-08T10:24:50;2.60;;;1.10;;
73650;SDS011;61944;52.538;6.108;2023-08-08T10:27:26;1.40;;;1.20;;
73650;SDS011;61944;52.538;6.108;2023-08-08T10:29:53;1.83;;;1.05;;
73650;SDS011;61944;52.538;6.108;2023-08-08T10:32:23;2.80;;;1.00;;
73650;SDS011;61944;52.538;6.108;2023-08-08T10:34:50;3.97;;;1.13;;
73650;SDS011;61944;52.538;6.108;2023-08-08T10:37:20;3.08;;;1.02;;
73650;SDS011;61944;52.538;6.108;2023-08-08T10:39:52;2.92;;;1.15;;
73650;SDS011;61944;52.538;6.108;2023-08-08T10:42:19;3.13;;;0.90;;
73650;SDS011;61944;52.538;6.108;2023-08-08T10:45:00;6.47;;;1.30;;
73650;SDS011;61944;52.538;6.108;2023-08-08T10:47:30;2.63;;;1.38;;
73650;SDS011;61944;52.538;6.108;2023-08-08T10:50:03;3.20;;;1.00;;
73650;SDS011;61944;52.538;6.108;2023-08-08T10:52:32;1.95;;;1.30;;
73650;SDS011;61944;52.538;6.108;2023-08-08T10:55:00;1.85;;;1.20;;
73650;SDS011;61944;52.538;6.108;2023-08-08T10:57:26;4.32;;;1.42;;
73650;SDS011;61944;52.538;6.108;2023-08-08T10:59:52;2.58;;;1.05;;
73650;SDS011;61944;52.538;6.108;2023-08-08T11:02:19;4.05;;;1.27;;
73650;SDS011;61944;52.538;6.108;2023-08-08T11:04:45;3.88;;;1.27;;
73650;SDS011;61944;52.538;6.108;2023-08-08T11:07:11;5.05;;;0.93;;
73650;SDS011;61944;52.538;6.108;2023-08-08T11:09:37;2.10;;;1.20;;
73650;SDS011;61944;52.538;6.108;2023-08-08T11:12:02;2.95;;;1.58;;
73650;SDS011;61944;52.538;6.108;2023-08-08T11:14:28;3.45;;;1.42;;
73650;SDS011;61944;52.538;6.108;2023-08-08T11:16:54;2.22;;;1.23;;
73650;SDS011;61944;52.538;6.108;2023-08-08T11:19:22;5.88;;;1.42;;
73650;SDS011;61944;52.538;6.108;2023-08-08T11:21:50;2.38;;;1.35;;
73650;SDS011;61944;52.538;6.108;2023-08-08T11:24:15;4.90;;;1.35;;
73650;SDS011;61944;52.538;6.108;2023-08-08T11:26:42;2.92;;;1.20;;
73650;SDS011;61944;52.538;6.108;2023-08-08T11:29:10;3.30;;;1.10;;
73650;SDS011;61944;52.538;6.108;2023-08-08T11:31:35;5.22;;;1.90;;
73650;SDS011;61944;52.538;6.108;2023-08-08T11:34:01;3.45;;;1.25;;
73650;SDS011;61944;52.538;6.108;2023-08-08T11:36:30;5.30;;;1.23;;
73650;SDS011;61944;52.538;6.108;2023-08-08T11:38:58;2.40;;;1.20;;
73650;SDS011;61944;52.538;6.108;2023-08-08T11:41:25;2.80;;;1.15;;
73650;SDS011;61944;52.538;6.108;2023-08-08T11:43:51;3.58;;;1.20;;
73650;SDS011;61944;52.538;6.108;2023-08-08T11:46:22;5.70;;;1.85;;
73650;SDS011;61944;52.538;6.108;2023-08-08T11:48:49;2.90;;;1.33;;
73650;SDS011;61944;52.538;6.108;2023-08-08T11:51:15;4.68;;;1.20;;
73650;SDS011;61944;52.538;6.108;2023-08-08T11:53:52;8.20;;;1.48;;
73650;SDS011;61944;52.538;6.108;2023-08-08T11:56:21;1.55;;;1.08;;
73650;SDS011;61944;52.538;6.108;2023-08-08T11:58:49;4.32;;;1.13;;
73650;SDS011;61944;52.538;6.108;2023-08-08T12:01:16;6.95;;;1.40;;
73650;SDS011;61944;52.538;6.108;2023-08-08T12:03:45;1.73;;;1.20;;
73650;SDS011;61944;52.538;6.108;2023-08-08T12:06:17;3.17;;;1.25;;
73650;SDS011;61944;52.538;6.108;2023-08-08T12:11:10;2.45;;;0.98;;
73650;SDS011;61944;52.538;6.108;2023-08-08T12:13:36;2.00;;;0.85;;
73650;SDS011;61944;52.538;6.108;2023-08-08T12:16:04;2.47;;;1.13;;
73650;SDS011;61944;52.538;6.108;2023-08-08T12:18:31;2.95;;;0.90;;
73650;SDS011;61944;52.538;6.108;2023-08-08T12:20:57;1.63;;;0.85;;
73650;SDS011;61944;52.538;6.108;2023-08-08T12:23:22;2.88;;;1.13;;
73650;SDS011;61944;52.538;6.108;2023-08-08T12:25:48;3.50;;;1.25;;
73650;SDS011;61944;52.538;6.108;2023-08-08T12:28:13;4.20;;;1.73;;
73650;SDS011;61944;52.538;6.108;2023-08-08T12:30:39;2.78;;;0.93;;
73650;SDS011;61944;52.538;6.108;2023-08-08T12:33:04;4.25;;;1.38;;
73650;SDS011;61944;52.538;6.108;2023-08-08T12:35:30;1.50;;;0.90;;
73650;SDS011;61944;52.538;6.108;2023-08-08T12:37:55;3.58;;;1.48;;
73650;SDS011;61944;52.538;6.108;2023-08-08T12:40:21;8.93;;;2.13;;
73650;SDS011;61944;52.538;6.108;2023-08-08T12:42:46;2.72;;;1.23;;
73650;SDS011;61944;52.538;6.108;2023-08-08T12:45:13;6.45;;;1.15;;
73650;SDS011;61944;52.538;6.108;2023-08-08T12:47:42;2.42;;;1.02;;
73650;SDS011;61944;52.538;6.108;2023-08-08T12:50:07;6.32;;;1.33;;
73650;SDS011;61944;52.538;6.108;2023-08-08T12:52:33;2.03;;;1.05;;
73650;SDS011;61944;52.538;6.108;2023-08-08T12:54:59;5.38;;;1.42;;
73650;SDS011;61944;52.538;6.108;2023-08-08T12:57:24;2.45;;;1.23;;
73650;SDS011;61944;52.538;6.108;2023-08-08T12:59:50;8.63;;;1.30;;
73650;SDS011;61944;52.538;6.108;2023-08-08T13:02:15;4.15;;;1.38;;
73650;SDS011;61944;52.538;6.108;2023-08-08T13:04:41;1.85;;;0.90;;
73650;SDS011;61944;52.538;6.108;2023-08-08T13:07:06;3.28;;;1.30;;
73650;SDS011;61944;52.538;6.108;2023-08-08T13:09:32;3.13;;;0.82;;
73650;SDS011;61944;52.538;6.108;2023-08-08T13:11:58;4.78;;;1.50;;
73650;SDS011;61944;52.538;6.108;2023-08-08T13:14:23;2.03;;;1.00;;
73650;SDS011;61944;52.538;6.108;2023-08-08T13:16:48;2.45;;;0.90;;
73650;SDS011;61944;52.538;6.108;2023-08-08T13:19:14;4.20;;;1.20;;
73650;SDS011;61944;52.538;6.108;2023-08-08T13:21:44;3.15;;;1.08;;
73650;SDS011;61944;52.538;6.108;2023-08-08T13:24:09;1.35;;;0.95;;
73650;SDS011;61944;52.538;6.108;2023-08-08T13:26:37;4.90;;;1.52;;
73650;SDS011;61944;52.538;6.108;2023-08-08T13:29:03;3.00;;;1.05;;
73650;SDS011;61944;52.538;6.108;2023-08-08T13:31:28;1.60;;;1.10;;
73650;SDS011;61944;52.538;6.108;2023-08-08T13:33:54;5.38;;;1.23;;
73650;SDS011;61944;52.538;6.108;2023-08-08T13:36:19;2.25;;;0.98;;
73650;SDS011;61944;52.538;6.108;2023-08-08T13:38:45;2.10;;;0.98;;
73650;SDS011;61944;52.538;6.108;2023-08-08T13:41:10;2.10;;;1.45;;
73650;SDS011;61944;52.538;6.108;2023-08-08T13:43:35;4.82;;;1.55;;
73650;SDS011;61944;52.538;6.108;2023-08-08T13:46:01;4.78;;;1.27;;
73650;SDS011;61944;52.538;6.108;2023-08-08T13:48:29;2.65;;;1.15;;
73650;SDS011;61944;52.538;6.108;2023-08-08T13:50:54;2.42;;;1.30;;
73650;SDS011;61944;52.538;6.108;2023-08-08T13:53:19;2.50;;;1.08;;
73650;SDS011;61944;52.538;6.108;2023-08-08T13:55:45;2.28;;;1.25;;
73650;SDS011;61944;52.538;6.108;2023-08-08T13:58:10;2.22;;;1.10;;
73650;SDS011;61944;52.538;6.108;2023-08-08T14:00:36;4.80;;;1.30;;
73650;SDS011;61944;52.538;6.108;2023-08-08T14:03:01;3.17;;;1.33;;
73650;SDS011;61944;52.538;6.108;2023-08-08T14:05:30;3.00;;;1.10;;
73650;SDS011;61944;52.538;6.108;2023-08-08T14:07:56;3.38;;;1.30;;
73650;SDS011;61944;52.538;6.108;2023-08-08T14:10:22;4.72;;;1.33;;
73650;SDS011;61944;52.538;6.108;2023-08-08T14:12:47;3.72;;;1.35;;
73650;SDS011;61944;52.538;6.108;2023-08-08T14:15:13;3.90;;;1.42;;
73650;SDS011;61944;52.538;6.108;2023-08-08T14:17:38;5.20;;;1.10;;
73650;SDS011;61944;52.538;6.108;2023-08-08T14:20:03;8.30;;;1.55;;
73650;SDS011;61944;52.538;6.108;2023-08-08T14:22:30;3.67;;;1.10;;
73650;SDS011;61944;52.538;6.108;2023-08-08T14:24:56;1.40;;;1.10;;
73650;SDS011;61944;52.538;6.108;2023-08-08T14:27:21;2.05;;;1.00;;
73650;SDS011;61944;52.538;6.108;2023-08-08T14:29:46;3.50;;;1.30;;
73650;SDS011;61944;52.538;6.108;2023-08-08T14:32:12;1.60;;;0.73;;
73650;SDS011;61944;52.538;6.108;2023-08-08T14:34:38;3.30;;;1.50;;
73650;SDS011;61944;52.538;6.108;2023-08-08T14:37:04;4.00;;;1.83;;
73650;SDS011;61944;52.538;6.108;2023-08-08T14:39:29;1.42;;;0.85;;
73650;SDS011;61944;52.538;6.108;2023-08-08T14:41:55;7.75;;;1.20;;
73650;SDS011;61944;52.538;6.108;2023-08-08T14:44:21;5.78;;;1.80;;